Time;durP1;ratioP1;P1;durP2;ratioP2;P2;SDS_P1;SDS_P2;PMS_P1;PMS_P2;Temp;Humidity;BMP_temperature;BMP_pressure;BME280_temperature;BME280_humidity;BME280_pressure;Samples;Min_cycle;Max_cycle;Signal;HPM_P1;HPM_P2
2022/04/19 00:01:32;;;;;;;4.37;4.20;;;7.00;99.90;;;;;;6279886;28;20240;-57
2022/04/19 00:04:36;;;;;;;4.47;4.27;;;7.00;99.90;;;;;;6278180;28;20582;-56
2022/04/19 00:07:40;;;;;;;4.57;4.20;;;7.00;99.90;;;;;;6282253;28;20313;-55
2022/04/19 00:10:44;;;;;;;4.53;4.43;;;7.10;99.90;;;;;;6283219;28;20328;-56
2022/04/19 00:13:46;;;;;;;4.60;4.30;;;7.00;99.90;;;;;;6280509;28;20270;-55
2022/04/19 00:16:50;;;;;;;4.47;4.17;;;6.90;99.90;;;;;;6275775;28;20257;-56
2022/04/19 00:19:53;;;;;;;4.83;4.53;;;6.90;99.90;;;;;;6246043;28;20313;-56
2022/04/19 00:22:58;;;;;;;5.03;4.80;;;6.80;99.90;;;;;;6257467;28;20238;-56
2022/04/19 00:26:01;;;;;;;4.20;4.10;;;6.70;99.90;;;;;;6261085;28;20250;-56
2022/04/19 00:29:04;;;;;;;4.63;4.43;;;6.90;99.90;;;;;;6278808;28;20326;-54
2022/04/19 00:32:09;;;;;;;4.63;4.33;;;6.90;99.90;;;;;;6281917;28;20233;-56
2022/04/19 00:35:16;;;;;;;4.30;4.00;;;6.90;99.90;;;;;;6278738;28;20507;-56
2022/04/19 00:38:19;;;;;;;4.47;4.37;;;6.90;99.90;;;;;;6272617;28;20320;-55
2022/04/19 00:41:22;;;;;;;4.47;4.33;;;6.90;99.90;;;;;;6282335;28;20241;-56
2022/04/19 00:44:25;;;;;;;4.20;3.90;;;6.90;99.90;;;;;;6275817;28;20300;-56
2022/04/19 00:47:29;;;;;;;4.03;3.83;;;6.70;99.90;;;;;;6257071;28;20932;-56
2022/04/19 00:50:32;;;;;;;4.07;3.97;;;6.80;99.90;;;;;;6258731;28;20792;-56
2022/04/19 00:53:36;;;;;;;4.20;4.00;;;6.80;99.90;;;;;;6258879;28;20658;-55
2022/04/19 00:56:40;;;;;;;4.33;4.13;;;6.90;99.90;;;;;;6258004;28;20437;-56
2022/04/19 00:59:44;;;;;;;4.13;4.03;;;6.60;99.90;;;;;;6253963;28;20651;-55
2022/04/19 01:02:48;;;;;;;4.33;4.13;;;6.70;99.90;;;;;;6262519;28;20371;-56
2022/04/19 01:05:55;;;;;;;4.27;4.00;;;6.80;99.90;;;;;;6269735;28;20274;-56
2022/04/19 01:08:59;;;;;;;4.07;3.87;;;7.00;99.90;;;;;;6286913;28;20240;-54
2022/04/19 01:15:22;;;;;;;4.83;4.63;;;6.60;99.90;;;;;;6263298;28;20933;-56
2022/04/19 01:18:26;;;;;;;4.57;4.40;;;6.50;99.90;;;;;;6256677;28;20344;-55
2022/04/19 01:21:43;;;;;;;4.20;4.10;;;6.70;99.90;;;;;;6256669;28;20323;-56
2022/04/19 01:24:46;;;;;;;4.37;4.17;;;6.40;99.90;;;;;;6257041;28;20321;-56
2022/04/19 01:27:48;;;;;;;4.50;4.40;;;6.40;99.90;;;;;;6256916;28;20325;-57
2022/04/19 01:30:54;;;;;;;4.60;4.40;;;6.20;99.90;;;;;;6255388;28;20742;-55
2022/04/19 01:33:56;;;;;;;3.97;3.87;;;6.40;99.90;;;;;;6275617;28;20244;-56
2022/04/19 01:37:00;;;;;;;3.97;3.93;;;6.30;99.90;;;;;;6274922;28;20237;-55
2022/04/19 01:40:20;;;;;;;4.27;4.07;;;6.50;99.90;;;;;;6278315;28;20249;-56
2022/04/19 01:43:23;;;;;;;4.50;4.30;;;6.30;99.90;;;;;;6258926;28;20333;-56
2022/04/19 01:46:26;;;;;;;4.43;4.03;;;6.30;99.90;;;;;;6258960;28;20257;-55
2022/04/19 01:49:29;;;;;;;3.83;3.73;;;6.20;99.90;;;;;;6260793;28;20240;-55
2022/04/19 01:52:33;;;;;;;4.20;4.07;;;6.10;99.90;;;;;;6262541;28;20411;-54
2022/04/19 01:55:36;;;;;;;4.33;4.10;;;6.20;99.90;;;;;;6268531;28;20274;-56
2022/04/19 01:58:39;;;;;;;3.90;3.77;;;6.20;99.90;;;;;;6283225;28;20628;-56
2022/04/19 02:01:41;;;;;;;4.40;4.30;;;6.00;99.90;;;;;;6284262;28;20240;-56
2022/04/19 02:04:44;;;;;;;4.40;4.30;;;6.10;99.90;;;;;;6285441;28;20401;-55
2022/04/19 02:07:49;;;;;;;4.77;4.37;;;6.40;99.90;;;;;;6271874;28;20252;-57
2022/04/19 02:10:51;;;;;;;4.30;4.20;;;6.00;99.90;;;;;;6276568;28;20293;-58
2022/04/19 02:13:54;;;;;;;4.50;4.20;;;6.00;99.90;;;;;;6265506;28;20317;-55
2022/04/19 02:16:57;;;;;;;4.60;4.30;;;6.00;99.90;;;;;;6260621;28;20275;-56
2022/04/19 02:20:00;;;;;;;4.03;3.93;;;6.10;99.90;;;;;;6262022;28;20789;-54
2022/04/19 02:23:05;;;;;;;4.80;4.50;;;6.00;99.90;;;;;;6282576;28;20256;-57
2022/04/19 02:26:08;;;;;;;4.57;4.30;;;6.00;99.90;;;;;;6285102;28;20385;-55
2022/04/19 02:29:13;;;;;;;4.30;4.10;;;6.00;99.90;;;;;;6282811;28;20374;-56
2022/04/19 02:32:16;;;;;;;4.20;4.10;;;5.90;99.90;;;;;;6285316;28;20383;-55
2022/04/19 02:35:20;;;;;;;4.47;4.27;;;6.10;99.90;;;;;;6277747;28;20241;-55
2022/04/19 02:38:25;;;;;;;4.57;4.37;;;6.10;99.90;;;;;;6284178;28;20729;-56
2022/04/19 02:41:28;;;;;;;4.37;4.17;;;6.00;99.90;;;;;;6284389;28;20314;-56
2022/04/19 02:44:31;;;;;;;4.40;4.23;;;6.20;99.90;;;;;;6278387;28;20229;-55
2022/04/19 02:47:33;;;;;;;4.77;4.47;;;5.90;99.90;;;;;;6283785;28;20316;-55
2022/04/19 02:50:41;;;;;;;4.70;4.40;;;6.00;99.90;;;;;;6285163;28;20267;-56
2022/04/19 02:53:45;;;;;;;4.43;4.23;;;6.00;99.90;;;;;;6284563;28;20308;-56
2022/04/19 02:56:48;;;;;;;4.10;3.90;;;6.20;99.90;;;;;;6284843;28;20254;-55
2022/04/19 02:59:51;;;;;;;4.50;4.20;;;5.90;99.90;;;;;;6282807;28;20267;-56
2022/04/19 03:02:54;;;;;;;4.20;4.10;;;5.90;99.90;;;;;;6285282;28;20722;-56
2022/04/19 03:05:57;;;;;;;4.57;4.37;;;5.80;99.90;;;;;;6260891;28;20321;-55
2022/04/19 03:09:01;;;;;;;4.87;4.47;;;6.10;99.90;;;;;;6276035;28;20637;-54
2022/04/19 03:12:05;;;;;;;4.53;4.20;;;5.80;99.90;;;;;;6284948;28;20710;-57
2022/04/19 03:15:10;;;;;;;5.67;5.13;;;5.60;99.90;;;;;;6258906;28;20313;-56
2022/04/19 03:18:12;;;;;;;3.97;3.87;;;5.60;99.90;;;;;;6260015;28;20499;-55
2022/04/19 03:21:15;;;;;;;4.80;4.57;;;5.70;99.90;;;;;;6260228;28;20252;-56
2022/04/19 03:27:42;;;;;;;4.60;4.50;;;5.70;99.90;;;;;;6259275;28;20311;-57
2022/04/19 03:30:46;;;;;;;4.87;4.57;;;5.60;99.90;;;;;;6257223;28;20362;-60
2022/04/19 03:33:49;;;;;;;4.50;4.30;;;5.50;99.90;;;;;;6269069;28;20316;-58
2022/04/19 03:36:52;;;;;;;4.50;4.30;;;5.70;99.90;;;;;;6282449;28;20249;-56
2022/04/19 03:39:56;;;;;;;4.77;4.53;;;5.70;99.90;;;;;;6287505;28;20314;-56
2022/04/19 03:42:59;;;;;;;4.53;4.40;;;5.60;99.90;;;;;;6286586;28;20233;-55
2022/04/19 03:46:02;;;;;;;4.53;4.27;;;5.40;99.90;;;;;;6289219;28;20332;-56
2022/04/19 03:49:06;;;;;;;4.93;4.37;;;5.30;99.90;;;;;;6280483;28;20253;-55
2022/04/19 03:52:09;;;;;;;4.53;4.30;;;5.40;99.90;;;;;;6282798;28;20498;-56
2022/04/19 03:55:13;;;;;;;5.03;4.63;;;5.40;99.90;;;;;;6290350;28;20717;-57
2022/04/19 03:58:16;;;;;;;4.43;4.23;;;5.50;99.90;;;;;;6282798;28;20951;-57
2022/04/19 04:01:18;;;;;;;4.60;4.30;;;5.20;99.90;;;;;;6279512;28;20699;-55
2022/04/19 04:04:22;;;;;;;5.10;4.70;;;5.40;99.90;;;;;;6287275;28;20244;-54
2022/04/19 04:07:27;;;;;;;4.57;4.37;;;5.50;99.90;;;;;;6279587;28;20319;-56
2022/04/19 04:10:31;;;;;;;5.43;5.10;;;5.40;99.90;;;;;;6282317;28;20557;-56
2022/04/19 04:13:34;;;;;;;4.37;4.23;;;5.20;99.90;;;;;;6269624;28;20471;-56
2022/04/19 04:16:37;;;;;;;4.87;4.60;;;5.20;99.90;;;;;;6282020;28;20395;-56
2022/04/19 04:19:40;;;;;;;4.77;4.50;;;5.10;99.90;;;;;;6284157;28;20274;-56
2022/04/19 04:22:42;;;;;;;4.77;4.53;;;5.10;99.90;;;;;;6281803;28;20237;-56
2022/04/19 04:25:46;;;;;;;4.97;4.63;;;5.20;99.90;;;;;;6274890;28;20722;-56
2022/04/19 04:28:49;;;;;;;4.50;4.30;;;5.20;99.90;;;;;;6280286;28;20245;-56
2022/04/19 04:31:52;;;;;;;5.00;4.80;;;4.90;99.90;;;;;;6281787;28;20393;-56
2022/04/19 04:34:54;;;;;;;5.03;4.73;;;5.10;99.90;;;;;;6278877;28;20248;-56
2022/04/19 04:37:57;;;;;;;5.53;5.13;;;5.30;99.90;;;;;;6281060;28;20237;-56
2022/04/19 04:41:01;;;;;;;4.90;4.60;;;5.10;99.90;;;;;;6281950;28;20230;-56
2022/04/19 04:44:05;;;;;;;5.43;4.97;;;5.30;99.90;;;;;;6275953;28;20325;-56
2022/04/19 04:50:28;;;;;;;5.03;4.77;;;5.30;99.90;;;;;;6281498;28;20698;-55
2022/04/19 04:53:31;;;;;;;5.83;5.00;;;5.30;99.90;;;;;;6281317;28;20237;-57
2022/04/19 04:56:36;;;;;;;5.40;4.90;;;5.00;99.90;;;;;;6283201;28;20772;-57
2022/04/19 04:59:39;;;;;;;5.60;5.30;;;5.00;99.90;;;;;;6281310;28;20244;-55
2022/04/19 05:02:44;;;;;;;5.27;5.00;;;5.30;99.90;;;;;;6285455;28;20237;-57
2022/04/19 05:05:46;;;;;;;5.90;5.60;;;5.20;99.90;;;;;;6284925;28;20404;-57
2022/04/19 05:08:49;;;;;;;5.77;5.47;;;5.60;99.90;;;;;;6291069;28;20531;-56
2022/04/19 05:11:53;;;;;;;5.97;5.50;;;5.30;99.90;;;;;;6285901;28;20229;-57
2022/04/19 05:14:56;;;;;;;5.73;5.43;;;5.30;99.90;;;;;;6289644;28;20764;-56
2022/04/19 05:17:59;;;;;;;6.00;5.60;;;5.40;99.90;;;;;;6276483;28;20426;-56
2022/04/19 05:21:02;;;;;;;5.90;5.43;;;5.40;99.90;;;;;;6286256;28;20239;-56
2022/04/19 05:24:05;;;;;;;6.17;5.57;;;5.60;99.90;;;;;;6276688;28;20307;-56
2022/04/19 05:27:09;;;;;;;5.90;5.50;;;5.70;99.90;;;;;;6295973;28;20325;-56
2022/04/19 05:30:13;;;;;;;5.30;5.00;;;5.70;99.90;;;;;;6283478;28;20367;-56
2022/04/19 05:33:15;;;;;;;5.97;5.60;;;5.90;99.90;;;;;;6291419;28;20743;-56
2022/04/19 05:36:18;;;;;;;6.13;5.73;;;5.80;99.90;;;;;;6285630;28;20244;-55
2022/04/19 05:39:21;;;;;;;5.83;5.53;;;5.80;99.90;;;;;;6291161;28;20593;-57
2022/04/19 05:42:25;;;;;;;5.70;5.20;;;5.90;99.90;;;;;;6284951;28;20629;-56
2022/04/19 05:45:28;;;;;;;6.07;5.70;;;6.10;99.90;;;;;;6281978;28;20729;-56
2022/04/19 05:48:31;;;;;;;6.20;5.70;;;6.20;99.90;;;;;;6286541;28;20321;-54
2022/04/19 05:51:35;;;;;;;6.30;5.83;;;6.20;99.90;;;;;;6284115;28;20243;-56
2022/04/19 05:54:37;;;;;;;5.70;5.20;;;6.30;99.90;;;;;;6285901;28;20230;-55
2022/04/19 05:57:41;;;;;;;5.10;4.73;;;6.70;99.90;;;;;;6286165;28;20233;-56
2022/04/19 06:00:44;;;;;;;5.67;5.20;;;6.60;99.90;;;;;;6281991;28;20319;-55
2022/04/19 06:07:07;;;;;;;5.50;5.20;;;6.90;99.90;;;;;;6284293;28;20249;-55
2022/04/19 06:10:10;;;;;;;5.93;5.53;;;7.20;99.90;;;;;;6290869;28;20237;-55
2022/04/19 06:13:14;;;;;;;6.03;5.60;;;7.50;99.90;;;;;;6286334;28;20605;-54
2022/04/19 06:16:17;;;;;;;5.90;5.37;;;7.70;99.90;;;;;;6284174;28;20245;-56
2022/04/19 06:19:20;;;;;;;6.10;5.50;;;7.90;99.90;;;;;;6282230;28;20252;-55
2022/04/19 06:22:23;;;;;;;5.90;5.60;;;8.20;99.90;;;;;;6283935;28;20256;-56
2022/04/19 06:25:25;;;;;;;7.20;5.17;;;8.50;99.90;;;;;;6288263;28;20322;-56
2022/04/19 06:28:30;;;;;;;5.60;5.30;;;9.20;99.90;;;;;;6280839;28;20643;-55
2022/04/19 06:31:32;;;;;;;5.27;4.97;;;9.90;99.90;;;;;;6283928;28;20362;-55
2022/04/19 06:34:35;;;;;;;5.50;5.10;;;10.20;99.90;;;;;;6285934;28;20387;-55
2022/04/19 06:37:38;;;;;;;5.10;4.80;;;10.20;99.90;;;;;;6287000;28;20274;-55
2022/04/19 06:40:41;;;;;;;6.20;5.70;;;10.10;99.90;;;;;;6286491;28;20367;-56
2022/04/19 06:43:45;;;;;;;5.80;5.40;;;10.10;99.90;;;;;;6279830;28;20391;-55
2022/04/19 06:46:52;;;;;;;6.13;5.50;;;10.10;99.90;;;;;;6282183;28;20241;-55
2022/04/19 06:49:57;;;;;;;6.43;5.50;;;9.90;99.90;;;;;;6284401;28;20351;-55
2022/04/19 06:53:00;;;;;;;5.97;5.37;;;9.90;99.90;;;;;;6282325;28;20424;-56
2022/04/19 06:56:04;;;;;;;6.07;5.63;;;10.00;99.90;;;;;;6284785;28;20455;-56
2022/04/19 06:59:09;;;;;;;6.23;5.80;;;9.90;99.90;;;;;;6280548;28;20320;-55
2022/04/19 07:02:11;;;;;;;6.07;5.57;;;9.90;99.90;;;;;;6285897;28;20374;-55
2022/04/19 07:05:14;;;;;;;6.33;5.93;;;9.90;99.90;;;;;;6277362;28;20567;-57
2022/04/19 07:08:17;;;;;;;5.50;5.10;;;9.90;99.90;;;;;;6293818;28;20331;-57
2022/04/19 07:11:20;;;;;;;6.43;5.87;;;10.00;99.90;;;;;;6283795;28;20319;-55
2022/04/19 07:14:24;;;;;;;7.97;6.37;;;10.10;99.90;;;;;;6285481;28;20645;-55
2022/04/19 07:17:27;;;;;;;8.73;6.13;;;10.00;99.90;;;;;;6288764;28;20302;-57
2022/04/19 07:27:10;;;;;;;6.20;5.70;;;10.10;99.90;;;;;;6285500;28;20238;-56
2022/04/19 07:30:16;;;;;;;6.50;6.00;;;10.20;99.90;;;;;;6283462;28;20320;-56
2022/04/19 07:33:19;;;;;;;6.63;6.10;;;10.20;99.90;;;;;;6283309;28;20367;-56
2022/04/19 07:36:21;;;;;;;5.97;5.57;;;10.30;99.90;;;;;;6282648;28;20258;-56
2022/04/19 07:39:24;;;;;;;5.90;5.33;;;10.40;99.90;;;;;;6290225;28;20769;-56
2022/04/19 07:42:27;;;;;;;5.43;5.07;;;10.50;99.90;;;;;;6284041;28;20365;-56
2022/04/19 07:45:31;;;;;;;5.30;5.00;;;10.60;99.90;;;;;;6276923;28;20241;-55
2022/04/19 07:48:34;;;;;;;5.47;5.10;;;10.50;99.90;;;;;;6279039;28;20332;-55
2022/04/19 07:51:36;;;;;;;5.33;5.13;;;10.60;99.90;;;;;;6287613;28;20367;-54
2022/04/19 07:54:39;;;;;;;5.17;4.87;;;10.80;99.90;;;;;;6280941;28;20281;-54
2022/04/19 07:57:42;;;;;;;5.20;4.80;;;10.90;99.90;;;;;;6280230;28;20601;-55
2022/04/19 08:00:46;;;;;;;7.17;4.73;;;10.90;99.90;;;;;;6279829;28;20742;-56
2022/04/19 08:03:49;;;;;;;5.13;4.73;;;11.10;99.90;;;;;;6287867;28;20231;-55
2022/04/19 08:06:53;;;;;;;4.50;4.20;;;11.30;99.90;;;;;;6278161;28;20268;-55
2022/04/19 08:09:58;;;;;;;4.87;4.50;;;11.40;99.90;;;;;;6289165;28;20318;-56
2022/04/19 08:13:01;;;;;;;4.70;4.40;;;11.50;99.90;;;;;;6280710;28;20240;-55
2022/04/19 08:16:06;;;;;;;4.60;4.20;;;11.50;99.90;;;;;;6280349;28;20237;-56
2022/04/19 08:19:10;;;;;;;4.23;3.97;;;11.70;99.90;;;;;;6292327;28;20285;-55
2022/04/19 08:22:12;;;;;;;4.37;4.07;;;11.80;99.90;;;;;;6281926;28;20876;-54
2022/04/19 08:25:15;;;;;;;4.47;4.17;;;11.80;99.90;;;;;;6281837;28;20702;-56
2022/04/19 08:28:19;;;;;;;4.67;4.27;;;11.80;99.90;;;;;;6278934;28;20756;-59
2022/04/19 08:31:23;;;;;;;4.53;4.23;;;11.90;99.90;;;;;;6280823;28;20241;-55
2022/04/19 08:34:25;;;;;;;4.10;3.90;;;12.00;99.90;;;;;;6289501;28;20309;-54
2022/04/19 08:37:30;;;;;;;4.57;4.27;;;12.10;99.90;;;;;;6285208;28;20770;-54
2022/04/19 08:40:34;;;;;;;5.40;4.40;;;12.10;99.90;;;;;;6287559;28;20282;-55
2022/04/19 08:43:38;;;;;;;4.63;4.20;;;12.10;99.90;;;;;;6290365;28;20351;-55
2022/04/19 08:46:42;;;;;;;4.30;4.10;;;12.20;99.90;;;;;;6291268;28;20352;-55
2022/04/19 08:49:47;;;;;;;4.50;4.20;;;12.20;99.90;;;;;;6289622;28;20252;-56
2022/04/19 08:57:29;;;;;;;4.40;4.13;;;12.30;99.90;;;;;;6294700;28;20449;-56
2022/04/19 08:59:36;;;;;;;3.90;3.80;;;12.40;99.90;;;;;;6281437;28;20232;-54
2022/04/19 09:02:40;;;;;;;3.40;3.30;;;12.40;99.90;;;;;;6292455;28;20253;-55
2022/04/19 09:05:51;;;;;;;4.33;3.73;;;12.50;99.90;;;;;;6287168;28;20229;-55
2022/04/19 09:09:10;;;;;;;3.57;3.40;;;12.70;99.90;;;;;;6294673;28;20761;-59
2022/04/19 09:12:13;;;;;;;3.50;3.40;;;12.80;99.90;;;;;;6293160;28;20607;-54
2022/04/19 09:15:16;;;;;;;4.03;3.37;;;13.00;99.90;;;;;;6292624;28;20321;-54
2022/04/19 09:18:29;;;;;;;5.57;3.77;;;13.10;99.90;;;;;;6288553;28;20237;-54
2022/04/19 09:21:37;;;;;;;5.00;3.43;;;13.10;99.90;;;;;;6287147;28;20693;-55
2022/04/19 09:24:40;;;;;;;3.90;3.13;;;13.20;99.90;;;;;;6288801;28;20240;-55
2022/04/19 09:27:43;;;;;;;4.63;3.20;;;13.20;99.90;;;;;;6290181;28;20303;-55
2022/04/19 09:30:48;;;;;;;4.53;2.93;;;13.20;99.90;;;;;;6285585;28;20284;-55
2022/04/19 09:34:00;;;;;;;3.13;2.93;;;13.30;99.90;;;;;;6289708;28;20778;-55
2022/04/19 09:37:10;;;;;;;3.40;3.20;;;13.40;99.90;;;;;;6289609;28;20233;-55
2022/04/19 09:40:14;;;;;;;3.03;2.93;;;13.40;99.90;;;;;;6281738;28;20241;-55
2022/04/19 09:43:20;;;;;;;2.93;2.83;;;13.50;99.90;;;;;;6287883;28;20868;-54
2022/04/19 09:46:23;;;;;;;3.30;3.00;;;13.60;99.90;;;;;;6288159;28;20721;-54
2022/04/19 09:52:53;;;;;;;3.70;2.97;;;13.60;99.90;;;;;;6349172;27;20389;-55
2022/04/19 09:55:58;;;;;;;3.00;2.80;;;13.80;99.90;;;;;;6329436;28;20327;-54
2022/04/19 09:59:03;;;;;;;2.90;2.80;;;13.90;99.90;;;;;;6326898;28;20243;-57
2022/04/19 10:08:49;;;;;;;2.70;2.60;;;14.30;99.90;;;;;;6327337;27;20236;-55
2022/04/19 10:11:52;;;;;;;3.10;2.83;;;14.40;99.90;;;;;;6329601;27;20238;-55
2022/04/19 10:14:55;;;;;;;2.80;2.70;;;14.50;99.90;;;;;;6352028;27;20668;-55
2022/04/19 10:17:58;;;;;;;2.67;2.47;;;14.70;99.90;;;;;;6344583;27;20228;-56
2022/04/19 10:21:03;;;;;;;5.00;2.63;;;14.70;99.90;;;;;;6352514;27;20248;-55
2022/04/19 10:24:12;;;;;;;2.80;2.70;;;14.60;99.90;;;;;;6352029;27;20279;-56
2022/04/19 10:27:15;;;;;;;3.07;2.87;;;14.80;99.90;;;;;;6352221;27;20240;-55
2022/04/19 10:30:21;;;;;;;3.40;3.00;;;14.90;99.90;;;;;;6347120;27;20231;-54
2022/04/19 10:33:49;;;;;;;2.83;2.70;;;14.90;99.90;;;;;;6354486;27;20281;-55
2022/04/19 10:36:54;;;;;;;2.70;2.60;;;15.20;99.90;;;;;;6326159;27;20318;-54
2022/04/19 10:40:08;;;;;;;8.43;2.70;;;15.50;99.90;;;;;;6321763;27;20238;-54
2022/04/19 10:43:14;;;;;;;2.47;2.37;;;15.70;99.90;;;;;;6342423;27;20552;-55
2022/04/19 10:46:19;;;;;;;3.30;2.80;;;15.50;99.90;;;;;;6322613;27;20304;-54
2022/04/19 10:49:22;;;;;;;3.00;2.67;;;15.60;99.90;;;;;;6326929;28;20237;-55
2022/04/19 10:52:50;;;;;;;2.63;2.47;;;15.70;99.90;;;;;;6326038;28;20778;-60
2022/04/19 10:56:03;;;;;;;2.70;2.60;;;15.90;99.90;;;;;;6321864;28;20234;-55
2022/04/19 10:59:21;;;;;;;2.70;2.50;;;15.80;99.90;;;;;;6324225;27;20235;-56
2022/04/19 11:02:37;;;;;;;2.70;2.50;;;15.70;99.90;;;;;;6320318;27;20269;-56
2022/04/19 11:05:44;;;;;;;3.07;2.83;;;15.70;99.90;;;;;;6307021;28;20237;-55
2022/04/19 11:08:49;;;;;;;2.73;2.60;;;15.70;99.90;;;;;;6307518;28;20240;-55
2022/04/19 11:11:56;;;;;;;3.00;2.90;;;15.90;99.90;;;;;;6305603;28;20621;-55
2022/04/19 11:15:14;;;;;;;2.60;2.40;;;15.90;99.90;;;;;;6304185;28;20233;-54
2022/04/19 11:18:23;;;;;;;2.67;2.57;;;15.90;99.90;;;;;;6300680;28;20321;-54
2022/04/19 11:21:47;;;;;;;7.40;2.40;;;15.90;99.90;;;;;;6308561;28;20366;-54
2022/04/19 11:25:00;;;;;;;2.83;2.73;;;15.80;99.90;;;;;;6333979;27;20255;-55
2022/04/19 11:28:19;;;;;;;3.43;2.80;;;15.70;99.90;;;;;;6326954;27;20239;-54
2022/04/19 11:31:22;;;;;;;2.70;2.60;;;15.40;99.90;;;;;;6303710;28;20280;-55
2022/04/19 11:34:25;;;;;;;4.33;2.97;;;15.20;99.90;;;;;;6303311;28;20229;-54
2022/04/19 11:37:29;;;;;;;3.17;2.80;;;15.30;99.90;;;;;;6308793;28;20228;-54
2022/04/19 11:47:15;;;;;;;3.60;3.30;;;15.20;99.90;;;;;;6327898;28;20312;-54
2022/04/19 11:50:25;;;;;;;3.17;2.97;;;15.20;99.90;;;;;;6317959;28;20722;-50
2022/04/19 11:53:28;;;;;;;3.07;2.87;;;15.30;99.90;;;;;;6333307;28;20384;-54
2022/04/19 11:56:31;;;;;;;2.90;2.70;;;15.30;99.90;;;;;;6333887;28;20232;-55
2022/04/19 11:59:37;;;;;;;4.33;3.07;;;15.30;99.90;;;;;;6330848;28;20315;-54
2022/04/19 12:02:39;;;;;;;4.70;3.00;;;15.40;99.90;;;;;;6330386;27;20229;-55
2022/04/19 12:05:42;;;;;;;3.00;2.90;;;15.60;99.90;;;;;;6339986;27;20372;-56
2022/04/19 12:08:49;;;;;;;6.20;3.00;;;15.60;99.90;;;;;;6332398;27;20295;-55
2022/04/19 12:11:54;;;;;;;2.90;2.80;;;15.50;99.90;;;;;;6337447;27;20959;-55
2022/04/19 12:14:58;;;;;;;2.67;2.57;;;15.40;99.90;;;;;;6331701;27;20240;-55
2022/04/19 12:18:01;;;;;;;3.00;2.80;;;15.20;99.90;;;;;;6332703;28;20407;-56
2022/04/19 12:21:05;;;;;;;3.00;2.90;;;15.40;99.90;;;;;;6325986;27;20524;-55
2022/04/19 12:24:20;;;;;;;3.40;3.20;;;15.30;99.90;;;;;;6334814;27;20244;-54
2022/04/19 12:27:27;;;;;;;3.30;3.10;;;15.20;99.90;;;;;;6308546;28;20224;-55
2022/04/19 12:30:47;;;;;;;3.33;2.83;;;15.20;99.90;;;;;;6305233;28;20289;-54
2022/04/19 12:33:53;;;;;;;3.13;2.97;;;15.40;99.90;;;;;;6330225;27;20224;-53
2022/04/19 12:37:06;;;;;;;3.33;2.67;;;15.60;99.90;;;;;;6315627;27;20343;-54
2022/04/19 12:40:10;;;;;;;3.17;2.97;;;15.60;99.90;;;;;;6306241;28;20620;-54
2022/04/19 12:43:14;;;;;;;3.33;3.10;;;15.60;99.90;;;;;;6307545;28;20240;-54
2022/04/19 12:46:22;;;;;;;10.30;3.37;;;15.60;99.90;;;;;;6305602;28;20256;-55
2022/04/19 12:49:26;;;;;;;2.83;2.73;;;15.50;99.90;;;;;;6303284;28;20228;-55
2022/04/19 12:52:33;;;;;;;2.77;2.77;;;15.40;99.90;;;;;;6307182;28;20848;-54
2022/04/19 13:02:53;;;;;;;3.33;3.13;;;15.20;99.90;;;;;;6311916;27;20260;-55
2022/04/19 13:12:37;;;;;;;2.90;2.80;;;15.60;99.90;;;;;;6299044;28;20616;-55
2022/04/19 13:15:40;;;;;;;2.50;2.50;;;15.70;99.90;;;;;;6299698;28;20315;-56
2022/04/19 13:18:44;;;;;;;2.80;2.70;;;15.70;99.90;;;;;;6331945;27;20234;-55
2022/04/19 13:21:47;;;;;;;2.60;2.50;;;15.70;99.90;;;;;;6334676;27;20236;-55
2022/04/19 13:24:53;;;;;;;3.00;2.90;;;15.70;99.90;;;;;;6328820;28;20227;-55
2022/04/19 13:27:57;;;;;;;2.70;2.60;;;15.80;99.90;;;;;;6330754;27;20782;-53
2022/04/19 13:31:00;;;;;;;3.10;3.00;;;15.90;99.90;;;;;;6327623;28;20232;-54
2022/04/19 13:34:04;;;;;;;3.70;2.60;;;16.10;99.90;;;;;;6332398;27;20277;-54
2022/04/19 13:37:08;;;;;;;3.83;2.63;;;16.00;99.90;;;;;;6331411;28;20485;-55
2022/04/19 13:40:11;;;;;;;2.57;2.50;;;16.00;99.90;;;;;;6330534;27;20704;-55
2022/04/19 13:43:14;;;;;;;2.70;2.53;;;16.00;99.90;;;;;;6328382;27;20243;-55
2022/04/19 13:46:16;;;;;;;2.60;2.50;;;15.80;99.90;;;;;;6331174;28;20239;-55
2022/04/19 13:49:20;;;;;;;2.80;2.60;;;15.70;99.90;;;;;;6335410;27;20315;-54
2022/04/19 13:52:23;;;;;;;2.67;2.57;;;15.60;99.90;;;;;;6332710;27;20235;-54
2022/04/19 13:55:28;;;;;;;2.60;2.50;;;15.20;99.90;;;;;;6332811;28;20235;-55
2022/04/19 13:58:30;;;;;;;3.63;2.60;;;15.20;99.90;;;;;;6328241;27;20223;-53
2022/04/19 14:01:33;;;;;;;2.37;2.37;;;15.20;99.90;;;;;;6332358;28;20223;-54
2022/04/19 14:04:37;;;;;;;2.83;2.37;;;15.40;99.90;;;;;;6332819;28;20748;-53
2022/04/19 14:07:40;;;;;;;3.47;2.80;;;15.70;99.90;;;;;;6324233;28;20319;-54
2022/04/19 14:10:43;;;;;;;3.03;2.47;;;15.90;99.90;;;;;;6331612;27;20515;-55
2022/04/19 14:13:46;;;;;;;2.60;2.50;;;15.90;99.90;;;;;;6329170;28;20372;-55
2022/04/19 14:16:48;;;;;;;2.50;2.40;;;15.70;99.90;;;;;;6337710;27;20235;-55
2022/04/19 14:19:52;;;;;;;2.60;2.50;;;15.60;99.90;;;;;;6331744;28;20231;-54
2022/04/19 14:22:55;;;;;;;3.00;2.50;;;15.40;99.90;;;;;;6331680;28;20318;-55
2022/04/19 14:25:59;;;;;;;3.17;2.90;;;15.30;99.90;;;;;;6323676;27;20232;-53
2022/04/19 14:35:44;;;;;;;4.27;2.73;;;14.90;99.90;;;;;;6295739;28;20241;-54
2022/04/19 14:38:46;;;;;;;2.93;2.70;;;14.90;99.90;;;;;;6312955;27;20236;-55
2022/04/19 14:41:49;;;;;;;2.67;2.47;;;15.00;99.90;;;;;;6334289;27;20396;-54
2022/04/19 14:44:53;;;;;;;2.47;2.33;;;15.20;99.90;;;;;;6333519;28;20500;-55
2022/04/19 14:47:57;;;;;;;2.83;2.53;;;15.40;99.90;;;;;;6335560;27;20228;-54
2022/04/19 14:54:21;;;;;;;2.43;2.43;;;15.90;99.90;;;;;;6334670;28;20255;-55
2022/04/19 14:57:25;;;;;;;2.40;2.30;;;15.80;99.90;;;;;;6338459;27;20252;-56
2022/04/19 15:00:27;;;;;;;2.80;2.70;;;15.70;99.90;;;;;;6328814;27;20595;-54
2022/04/19 15:03:30;;;;;;;2.73;2.43;;;15.40;99.90;;;;;;6305817;28;20301;-56
2022/04/19 15:06:34;;;;;;;2.60;2.40;;;15.50;99.90;;;;;;6310433;28;20505;-56
2022/04/19 15:09:37;;;;;;;2.63;2.43;;;15.70;99.90;;;;;;6306859;28;20393;-53
2022/04/19 15:12:41;;;;;;;3.20;2.90;;;15.60;99.90;;;;;;6303688;28;20272;-55
2022/04/19 15:15:44;;;;;;;2.90;2.53;;;15.50;99.90;;;;;;6307276;28;20292;-56
2022/04/19 15:18:46;;;;;;;2.40;2.33;;;15.40;99.90;;;;;;6309260;28;20258;-54
2022/04/19 15:21:51;;;;;;;2.80;2.60;;;15.40;99.90;;;;;;6327310;27;20236;-53
2022/04/19 15:24:53;;;;;;;8.50;2.93;;;15.40;99.90;;;;;;6330661;27;20232;-54
2022/04/19 15:27:56;;;;;;;3.20;2.90;;;15.10;99.90;;;;;;6334156;27;20766;-56
2022/04/19 15:30:59;;;;;;;2.43;2.40;;;15.00;99.90;;;;;;6329567;27;20235;-55
2022/04/19 15:34:02;;;;;;;2.60;2.50;;;15.00;99.90;;;;;;6326477;27;20638;-55
2022/04/19 15:37:06;;;;;;;4.17;2.70;;;14.80;99.90;;;;;;6333013;27;20393;-55
2022/04/19 15:40:10;;;;;;;4.80;2.80;;;14.70;99.90;;;;;;6335913;27;20413;-53
2022/04/19 15:43:13;;;;;;;4.30;2.87;;;14.50;99.90;;;;;;6328524;28;20424;-53
2022/04/19 15:46:16;;;;;;;3.23;3.00;;;14.30;99.90;;;;;;6331157;27;20240;-54
2022/04/19 15:49:18;;;;;;;3.07;2.87;;;14.30;99.90;;;;;;6323919;28;20316;-55
2022/04/19 15:52:22;;;;;;;2.90;2.70;;;14.40;99.90;;;;;;6336932;27;20389;-55
2022/04/19 15:55:25;;;;;;;2.93;2.83;;;14.50;99.90;;;;;;6334098;27;20248;-56
2022/04/19 15:58:28;;;;;;;2.80;2.60;;;14.50;99.90;;;;;;6333533;27;20239;-55
2022/04/19 16:01:31;;;;;;;2.90;2.80;;;14.50;99.90;;;;;;6333401;28;20602;-55
2022/04/19 16:04:34;;;;;;;2.83;2.63;;;14.60;99.90;;;;;;6340600;27;20243;-55
2022/04/19 16:07:38;;;;;;;2.70;2.70;;;14.60;99.90;;;;;;6331965;28;20326;-55
2022/04/19 16:10:41;;;;;;;2.80;2.70;;;14.70;99.90;;;;;;6329524;28;20383;-56
2022/04/19 16:13:43;;;;;;;3.00;2.77;;;14.70;99.90;;;;;;6330660;27;20235;-54
2022/04/19 16:23:30;;;;;;;3.13;3.03;;;14.60;99.90;;;;;;6304833;28;20629;-54
2022/04/19 16:26:32;;;;;;;3.13;3.00;;;14.40;99.90;;;;;;6308459;28;20236;-55
2022/04/19 16:29:35;;;;;;;2.87;2.70;;;14.30;99.90;;;;;;6299256;28;20256;-54
2022/04/19 16:32:38;;;;;;;2.90;2.70;;;14.20;99.90;;;;;;6304661;28;20244;-54
2022/04/19 16:35:41;;;;;;;4.53;2.70;;;14.10;99.90;;;;;;6305449;28;20244;-55
2022/04/19 16:38:45;;;;;;;2.93;2.83;;;14.00;99.90;;;;;;6302185;28;20319;-53
2022/04/19 16:41:48;;;;;;;2.80;2.80;;;14.00;99.90;;;;;;6307930;28;20377;-55
2022/04/19 16:44:51;;;;;;;3.07;2.90;;;13.90;99.90;;;;;;6302759;28;20370;-53
2022/04/19 16:47:53;;;;;;;2.97;2.80;;;13.80;99.90;;;;;;6304236;28;20229;-55
2022/04/19 16:50:56;;;;;;;2.70;2.70;;;13.70;99.90;;;;;;6307552;28;20278;-55
2022/04/19 16:54:00;;;;;;;3.00;2.90;;;13.60;99.90;;;;;;6306970;28;20341;-55
2022/04/19 16:57:03;;;;;;;3.00;2.80;;;13.50;99.90;;;;;;6304896;28;20355;-55
2022/04/19 17:00:08;;;;;;;2.80;2.80;;;13.50;99.90;;;;;;6304369;28;20331;-55
2022/04/19 17:06:43;;;;;;;3.10;3.00;;;13.50;99.90;;;;;;6276176;28;20446;-56
2022/04/19 17:09:47;;;;;;;4.47;3.10;;;13.60;99.90;;;;;;6332174;28;20602;-54
2022/04/19 17:12:50;;;;;;;3.30;3.10;;;13.70;99.90;;;;;;6326109;27;20704;-55
2022/04/19 17:15:53;;;;;;;3.20;3.00;;;13.50;99.90;;;;;;6329923;27;20622;-54
2022/04/19 17:18:58;;;;;;;3.00;2.90;;;13.50;99.90;;;;;;6332359;28;20236;-55